sensor_id;sensor_type;location;lat;lon;timestamp;P1;durP1;ratioP1;P2;durP2;ratioP2
26756;SDS011;23848;49.798;10.228;2022-09-09T00:01:59;3.42;;;0.98;;
26756;SDS011;23848;49.798;10.228;2022-09-09T00:04:30;1.83;;;0.95;;
26756;SDS011;23848;49.798;10.228;2022-09-09T00:07:00;4.03;;;1.13;;
26756;SDS011;23848;49.798;10.228;2022-09-09T00:09:32;3.38;;;1.00;;
26756;SDS011;23848;49.798;10.228;2022-09-09T00:12:05;2.88;;;1.02;;
26756;SDS011;23848;49.798;10.228;2022-09-09T00:14:38;2.45;;;0.90;;
26756;SDS011;23848;49.798;10.228;2022-09-09T00:17:12;3.53;;;1.20;;
26756;SDS011;23848;49.798;10.228;2022-09-09T00:19:44;2.08;;;0.98;;
26756;SDS011;23848;49.798;10.228;2022-09-09T00:22:17;3.38;;;1.27;;
26756;SDS011;23848;49.798;10.228;2022-09-09T00:24:46;1.38;;;0.80;;
26756;SDS011;23848;49.798;10.228;2022-09-09T00:27:16;2.03;;;0.90;;
26756;SDS011;23848;49.798;10.228;2022-09-09T00:29:47;3.13;;;1.40;;
26756;SDS011;23848;49.798;10.228;2022-09-09T00:32:21;3.23;;;1.13;;
26756;SDS011;23848;49.798;10.228;2022-09-09T00:34:50;2.80;;;1.30;;
26756;SDS011;23848;49.798;10.228;2022-09-09T00:37:20;3.92;;;1.35;;
26756;SDS011;23848;49.798;10.228;2022-09-09T00:39:51;2.05;;;1.10;;
26756;SDS011;23848;49.798;10.228;2022-09-09T00:42:23;2.83;;;1.15;;
26756;SDS011;23848;49.798;10.228;2022-09-09T00:44:53;2.75;;;1.15;;
26756;SDS011;23848;49.798;10.228;2022-09-09T00:47:33;2.22;;;1.00;;
26756;SDS011;23848;49.798;10.228;2022-09-09T00:50:09;1.88;;;0.82;;
26756;SDS011;23848;49.798;10.228;2022-09-09T00:52:39;2.13;;;1.05;;
26756;SDS011;23848;49.798;10.228;2022-09-09T00:55:11;3.95;;;1.20;;
26756;SDS011;23848;49.798;10.228;2022-09-09T00:57:41;2.45;;;1.10;;
26756;SDS011;23848;49.798;10.228;2022-09-09T01:00:20;3.05;;;1.05;;
26756;SDS011;23848;49.798;10.228;2022-09-09T01:03:00;2.67;;;1.10;;
26756;SDS011;23848;49.798;10.228;2022-09-09T01:05:33;2.03;;;1.15;;
26756;SDS011;23848;49.798;10.228;2022-09-09T01:08:03;4.25;;;1.52;;
26756;SDS011;23848;49.798;10.228;2022-09-09T01:10:36;3.88;;;1.40;;
26756;SDS011;23848;49.798;10.228;2022-09-09T01:13:09;2.63;;;1.27;;
26756;SDS011;23848;49.798;10.228;2022-09-09T01:15:40;5.03;;;1.63;;
26756;SDS011;23848;49.798;10.228;2022-09-09T01:18:12;2.97;;;1.30;;
26756;SDS011;23848;49.798;10.228;2022-09-09T01:20:44;3.80;;;1.40;;
26756;SDS011;23848;49.798;10.228;2022-09-09T01:23:19;3.35;;;1.40;;
26756;SDS011;23848;49.798;10.228;2022-09-09T01:26:08;3.15;;;1.30;;
26756;SDS011;23848;49.798;10.228;2022-09-09T01:28:38;2.38;;;0.98;;
26756;SDS011;23848;49.798;10.228;2022-09-09T01:31:07;3.00;;;1.52;;
26756;SDS011;23848;49.798;10.228;2022-09-09T01:33:37;3.70;;;1.40;;
26756;SDS011;23848;49.798;10.228;2022-09-09T01:36:06;3.95;;;1.25;;
26756;SDS011;23848;49.798;10.228;2022-09-09T01:38:36;2.88;;;1.10;;
26756;SDS011;23848;49.798;10.228;2022-09-09T01:41:06;3.90;;;1.60;;
26756;SDS011;23848;49.798;10.228;2022-09-09T01:43:34;3.63;;;1.33;;
26756;SDS011;23848;49.798;10.228;2022-09-09T01:46:03;2.90;;;1.48;;
26756;SDS011;23848;49.798;10.228;2022-09-09T01:48:31;2.72;;;1.42;;
26756;SDS011;23848;49.798;10.228;2022-09-09T01:51:00;4.95;;;1.50;;
26756;SDS011;23848;49.798;10.228;2022-09-09T01:53:28;2.28;;;1.25;;
26756;SDS011;23848;49.798;10.228;2022-09-09T01:56:00;4.03;;;1.60;;
26756;SDS011;23848;49.798;10.228;2022-09-09T01:58:37;2.03;;;1.10;;
26756;SDS011;23848;49.798;10.228;2022-09-09T02:01:12;3.85;;;1.08;;
26756;SDS011;23848;49.798;10.228;2022-09-09T02:03:44;3.57;;;1.30;;
26756;SDS011;23848;49.798;10.228;2022-09-09T02:06:18;4.43;;;1.63;;
26756;SDS011;23848;49.798;10.228;2022-09-09T02:08:50;3.45;;;1.30;;
26756;SDS011;23848;49.798;10.228;2022-09-09T02:11:21;2.95;;;1.45;;
26756;SDS011;23848;49.798;10.228;2022-09-09T02:13:52;2.40;;;1.33;;
26756;SDS011;23848;49.798;10.228;2022-09-09T02:16:22;3.28;;;1.10;;
26756;SDS011;23848;49.798;10.228;2022-09-09T02:18:53;2.50;;;1.10;;
26756;SDS011;23848;49.798;10.228;2022-09-09T02:21:24;2.63;;;1.13;;
26756;SDS011;23848;49.798;10.228;2022-09-09T02:23:54;3.38;;;1.30;;
26756;SDS011;23848;49.798;10.228;2022-09-09T02:26:24;4.25;;;1.30;;
26756;SDS011;23848;49.798;10.228;2022-09-09T02:28:55;1.98;;;1.08;;
26756;SDS011;23848;49.798;10.228;2022-09-09T02:31:25;2.35;;;1.25;;
26756;SDS011;23848;49.798;10.228;2022-09-09T02:33:54;2.63;;;1.00;;
26756;SDS011;23848;49.798;10.228;2022-09-09T02:36:23;5.03;;;1.50;;
26756;SDS011;23848;49.798;10.228;2022-09-09T02:38:53;4.35;;;1.40;;
26756;SDS011;23848;49.798;10.228;2022-09-09T02:41:23;3.08;;;1.20;;
26756;SDS011;23848;49.798;10.228;2022-09-09T02:43:52;1.85;;;1.13;;
26756;SDS011;23848;49.798;10.228;2022-09-09T02:46:35;2.83;;;1.17;;
26756;SDS011;23848;49.798;10.228;2022-09-09T02:49:06;3.72;;;1.08;;
26756;SDS011;23848;49.798;10.228;2022-09-09T02:51:39;3.30;;;1.23;;
26756;SDS011;23848;49.798;10.228;2022-09-09T02:54:10;3.38;;;1.33;;
26756;SDS011;23848;49.798;10.228;2022-09-09T02:56:40;2.70;;;1.15;;
26756;SDS011;23848;49.798;10.228;2022-09-09T02:59:13;3.53;;;1.50;;
26756;SDS011;23848;49.798;10.228;2022-09-09T03:01:42;2.65;;;1.20;;
26756;SDS011;23848;49.798;10.228;2022-09-09T03:04:11;4.22;;;1.23;;
26756;SDS011;23848;49.798;10.228;2022-09-09T03:06:39;3.97;;;1.20;;
26756;SDS011;23848;49.798;10.228;2022-09-09T03:09:08;2.72;;;1.38;;
26756;SDS011;23848;49.798;10.228;2022-09-09T03:11:36;2.22;;;1.27;;
26756;SDS011;23848;49.798;10.228;2022-09-09T03:14:08;3.90;;;1.70;;
26756;SDS011;23848;49.798;10.228;2022-09-09T03:16:39;3.35;;;1.27;;
26756;SDS011;23848;49.798;10.228;2022-09-09T03:19:10;2.90;;;1.13;;
26756;SDS011;23848;49.798;10.228;2022-09-09T03:21:41;3.17;;;1.00;;
26756;SDS011;23848;49.798;10.228;2022-09-09T03:24:10;1.85;;;1.15;;
26756;SDS011;23848;49.798;10.228;2022-09-09T03:26:38;4.13;;;1.42;;
26756;SDS011;23848;49.798;10.228;2022-09-09T03:29:07;3.53;;;1.20;;
26756;SDS011;23848;49.798;10.228;2022-09-09T03:31:35;3.05;;;1.10;;
26756;SDS011;23848;49.798;10.228;2022-09-09T03:34:04;7.10;;;1.48;;
26756;SDS011;23848;49.798;10.228;2022-09-09T03:36:34;3.88;;;1.35;;
26756;SDS011;23848;49.798;10.228;2022-09-09T03:39:02;2.60;;;1.30;;
26756;SDS011;23848;49.798;10.228;2022-09-09T03:41:31;3.10;;;1.40;;
26756;SDS011;23848;49.798;10.228;2022-09-09T03:44:00;3.42;;;1.58;;
26756;SDS011;23848;49.798;10.228;2022-09-09T03:46:28;3.45;;;1.30;;
26756;SDS011;23848;49.798;10.228;2022-09-09T03:48:57;3.90;;;1.10;;
26756;SDS011;23848;49.798;10.228;2022-09-09T03:51:26;2.35;;;1.40;;
26756;SDS011;23848;49.798;10.228;2022-09-09T03:53:56;3.55;;;1.63;;
26756;SDS011;23848;49.798;10.228;2022-09-09T03:56:24;2.90;;;1.63;;
26756;SDS011;23848;49.798;10.228;2022-09-09T03:58:53;3.65;;;1.30;;
26756;SDS011;23848;49.798;10.228;2022-09-09T04:01:21;2.55;;;1.50;;
26756;SDS011;23848;49.798;10.228;2022-09-09T04:03:50;3.72;;;1.20;;
26756;SDS011;23848;49.798;10.228;2022-09-09T04:06:18;2.45;;;1.38;;
26756;SDS011;23848;49.798;10.228;2022-09-09T04:08:47;3.35;;;1.30;;
26756;SDS011;23848;49.798;10.228;2022-09-09T04:11:17;3.70;;;1.70;;
26756;SDS011;23848;49.798;10.228;2022-09-09T04:13:46;2.42;;;1.15;;
26756;SDS011;23848;49.798;10.228;2022-09-09T04:16:15;2.53;;;1.50;;
26756;SDS011;23848;49.798;10.228;2022-09-09T04:18:43;2.95;;;1.05;;
26756;SDS011;23848;49.798;10.228;2022-09-09T04:21:12;4.53;;;1.40;;
26756;SDS011;23848;49.798;10.228;2022-09-09T04:23:42;3.65;;;1.40;;
26756;SDS011;23848;49.798;10.228;2022-09-09T04:26:10;2.20;;;1.30;;
26756;SDS011;23848;49.798;10.228;2022-09-09T04:28:40;2.97;;;1.25;;
26756;SDS011;23848;49.798;10.228;2022-09-09T04:31:09;3.92;;;1.38;;
26756;SDS011;23848;49.798;10.228;2022-09-09T04:33:37;3.38;;;1.10;;
26756;SDS011;23848;49.798;10.228;2022-09-09T04:36:06;4.38;;;1.67;;
26756;SDS011;23848;49.798;10.228;2022-09-09T04:38:35;3.08;;;1.15;;
26756;SDS011;23848;49.798;10.228;2022-09-09T04:41:04;5.63;;;1.88;;
26756;SDS011;23848;49.798;10.228;2022-09-09T04:43:32;5.03;;;1.48;;
26756;SDS011;23848;49.798;10.228;2022-09-09T04:46:02;4.47;;;1.73;;
26756;SDS011;23848;49.798;10.228;2022-09-09T04:48:31;4.40;;;1.60;;
26756;SDS011;23848;49.798;10.228;2022-09-09T04:51:00;2.85;;;1.40;;
26756;SDS011;23848;49.798;10.228;2022-09-09T04:53:30;3.72;;;1.52;;
26756;SDS011;23848;49.798;10.228;2022-09-09T04:56:04;3.50;;;1.30;;
26756;SDS011;23848;49.798;10.228;2022-09-09T04:58:33;3.13;;;1.20;;
26756;SDS011;23848;49.798;10.228;2022-09-09T05:01:04;2.15;;;1.38;;
26756;SDS011;23848;49.798;10.228;2022-09-09T05:03:33;2.92;;;1.30;;
26756;SDS011;23848;49.798;10.228;2022-09-09T05:06:02;2.67;;;1.40;;
26756;SDS011;23848;49.798;10.228;2022-09-09T05:08:31;2.35;;;1.10;;
26756;SDS011;23848;49.798;10.228;2022-09-09T05:10:59;4.97;;;1.23;;
26756;SDS011;23848;49.798;10.228;2022-09-09T05:13:27;2.40;;;1.15;;
26756;SDS011;23848;49.798;10.228;2022-09-09T05:15:58;3.78;;;1.33;;
26756;SDS011;23848;49.798;10.228;2022-09-09T05:18:28;1.77;;;0.88;;
26756;SDS011;23848;49.798;10.228;2022-09-09T05:20:58;4.47;;;1.35;;
26756;SDS011;23848;49.798;10.228;2022-09-09T05:23:27;1.83;;;1.10;;
26756;SDS011;23848;49.798;10.228;2022-09-09T05:25:55;2.28;;;1.20;;
26756;SDS011;23848;49.798;10.228;2022-09-09T05:28:24;4.32;;;1.10;;
26756;SDS011;23848;49.798;10.228;2022-09-09T05:30:56;2.97;;;1.10;;
26756;SDS011;23848;49.798;10.228;2022-09-09T05:33:24;2.00;;;1.15;;
26756;SDS011;23848;49.798;10.228;2022-09-09T05:36:01;3.10;;;1.42;;
26756;SDS011;23848;49.798;10.228;2022-09-09T05:38:30;3.20;;;1.30;;
26756;SDS011;23848;49.798;10.228;2022-09-09T05:41:00;2.38;;;1.00;;
26756;SDS011;23848;49.798;10.228;2022-09-09T05:43:30;3.45;;;1.50;;
26756;SDS011;23848;49.798;10.228;2022-09-09T05:45:59;5.82;;;1.40;;
26756;SDS011;23848;49.798;10.228;2022-09-09T05:48:28;3.90;;;1.40;;
26756;SDS011;23848;49.798;10.228;2022-09-09T05:50:58;3.25;;;1.30;;
26756;SDS011;23848;49.798;10.228;2022-09-09T05:53:28;2.90;;;1.00;;
26756;SDS011;23848;49.798;10.228;2022-09-09T05:55:59;2.00;;;1.17;;
26756;SDS011;23848;49.798;10.228;2022-09-09T05:58:28;2.67;;;1.20;;
26756;SDS011;23848;49.798;10.228;2022-09-09T06:01:03;3.03;;;1.13;;
26756;SDS011;23848;49.798;10.228;2022-09-09T06:03:33;2.10;;;0.95;;
26756;SDS011;23848;49.798;10.228;2022-09-09T06:06:02;2.28;;;1.15;;
26756;SDS011;23848;49.798;10.228;2022-09-09T06:08:33;2.63;;;1.10;;
26756;SDS011;23848;49.798;10.228;2022-09-09T06:11:04;2.38;;;1.15;;
26756;SDS011;23848;49.798;10.228;2022-09-09T06:13:32;2.38;;;1.17;;
26756;SDS011;23848;49.798;10.228;2022-09-09T06:16:01;3.83;;;1.25;;
26756;SDS011;23848;49.798;10.228;2022-09-09T06:18:31;2.95;;;1.27;;
26756;SDS011;23848;49.798;10.228;2022-09-09T06:21:00;2.55;;;1.33;;
26756;SDS011;23848;49.798;10.228;2022-09-09T06:23:29;2.47;;;1.17;;
26756;SDS011;23848;49.798;10.228;2022-09-09T06:26:03;2.10;;;1.02;;
26756;SDS011;23848;49.798;10.228;2022-09-09T06:28:33;3.45;;;1.10;;
26756;SDS011;23848;49.798;10.228;2022-09-09T06:31:02;3.67;;;0.93;;
26756;SDS011;23848;49.798;10.228;2022-09-09T06:33:32;2.65;;;1.10;;
26756;SDS011;23848;49.798;10.228;2022-09-09T06:36:01;4.85;;;1.02;;
26756;SDS011;23848;49.798;10.228;2022-09-09T06:38:30;4.28;;;1.10;;
26756;SDS011;23848;49.798;10.228;2022-09-09T06:40:59;3.00;;;0.85;;
26756;SDS011;23848;49.798;10.228;2022-09-09T06:43:29;1.95;;;0.68;;
26756;SDS011;23848;49.798;10.228;2022-09-09T06:45:58;2.65;;;0.95;;
26756;SDS011;23848;49.798;10.228;2022-09-09T06:48:27;2.50;;;1.10;;
26756;SDS011;23848;49.798;10.228;2022-09-09T06:51:02;2.10;;;0.90;;
26756;SDS011;23848;49.798;10.228;2022-09-09T06:53:31;3.35;;;1.20;;
26756;SDS011;23848;49.798;10.228;2022-09-09T06:56:00;2.30;;;1.15;;
26756;SDS011;23848;49.798;10.228;2022-09-09T06:58:30;3.05;;;1.10;;
26756;SDS011;23848;49.798;10.228;2022-09-09T07:01:02;3.67;;;0.90;;
26756;SDS011;23848;49.798;10.228;2022-09-09T07:03:31;3.15;;;1.00;;
26756;SDS011;23848;49.798;10.228;2022-09-09T07:05:59;3.33;;;0.90;;
26756;SDS011;23848;49.798;10.228;2022-09-09T07:08:28;2.63;;;1.10;;
26756;SDS011;23848;49.798;10.228;2022-09-09T07:11:01;1.92;;;0.80;;
26756;SDS011;23848;49.798;10.228;2022-09-09T07:13:38;2.35;;;0.82;;
26756;SDS011;23848;49.798;10.228;2022-09-09T07:16:09;2.15;;;0.85;;
26756;SDS011;23848;49.798;10.228;2022-09-09T07:18:37;1.83;;;0.70;;
26756;SDS011;23848;49.798;10.228;2022-09-09T07:21:07;1.83;;;0.70;;
26756;SDS011;23848;49.798;10.228;2022-09-09T07:23:37;4.13;;;0.60;;
26756;SDS011;23848;49.798;10.228;2022-09-09T07:26:07;2.67;;;0.85;;
26756;SDS011;23848;49.798;10.228;2022-09-09T07:28:37;1.85;;;0.70;;
26756;SDS011;23848;49.798;10.228;2022-09-09T07:31:12;2.25;;;0.50;;
26756;SDS011;23848;49.798;10.228;2022-09-09T07:33:43;2.60;;;0.70;;
26756;SDS011;23848;49.798;10.228;2022-09-09T07:36:13;2.45;;;0.90;;
26756;SDS011;23848;49.798;10.228;2022-09-09T07:38:41;1.45;;;0.60;;
26756;SDS011;23848;49.798;10.228;2022-09-09T07:41:12;3.60;;;0.93;;
26756;SDS011;23848;49.798;10.228;2022-09-09T07:43:42;2.25;;;0.80;;
26756;SDS011;23848;49.798;10.228;2022-09-09T07:46:13;1.83;;;0.60;;
26756;SDS011;23848;49.798;10.228;2022-09-09T07:48:43;2.53;;;0.90;;
26756;SDS011;23848;49.798;10.228;2022-09-09T07:51:12;2.42;;;0.88;;
26756;SDS011;23848;49.798;10.228;2022-09-09T07:53:45;2.15;;;0.60;;
26756;SDS011;23848;49.798;10.228;2022-09-09T07:56:14;2.78;;;0.73;;
26756;SDS011;23848;49.798;10.228;2022-09-09T07:58:44;1.75;;;0.60;;
26756;SDS011;23848;49.798;10.228;2022-09-09T08:01:15;3.55;;;0.77;;
26756;SDS011;23848;49.798;10.228;2022-09-09T08:03:44;0.70;;;0.40;;
26756;SDS011;23848;49.798;10.228;2022-09-09T08:06:13;2.33;;;0.75;;
26756;SDS011;23848;49.798;10.228;2022-09-09T08:08:41;3.53;;;0.70;;
26756;SDS011;23848;49.798;10.228;2022-09-09T08:11:10;2.47;;;0.85;;
26756;SDS011;23848;49.798;10.228;2022-09-09T08:13:40;2.38;;;0.95;;
26756;SDS011;23848;49.798;10.228;2022-09-09T08:16:10;2.78;;;0.70;;
26756;SDS011;23848;49.798;10.228;2022-09-09T08:18:40;1.92;;;0.55;;
26756;SDS011;23848;49.798;10.228;2022-09-09T08:21:10;1.98;;;0.70;;
26756;SDS011;23848;49.798;10.228;2022-09-09T08:23:39;2.63;;;0.60;;
26756;SDS011;23848;49.798;10.228;2022-09-09T08:26:10;5.60;;;1.38;;
26756;SDS011;23848;49.798;10.228;2022-09-09T08:28:39;1.48;;;0.60;;
26756;SDS011;23848;49.798;10.228;2022-09-09T08:31:09;7.07;;;1.67;;
26756;SDS011;23848;49.798;10.228;2022-09-09T08:33:37;2.95;;;1.13;;
26756;SDS011;23848;49.798;10.228;2022-09-09T08:36:09;2.03;;;0.82;;
26756;SDS011;23848;49.798;10.228;2022-09-09T08:38:38;3.15;;;1.00;;
26756;SDS011;23848;49.798;10.228;2022-09-09T08:43:58;3.60;;;0.90;;
26756;SDS011;23848;49.798;10.228;2022-09-09T08:46:30;2.45;;;0.50;;
26756;SDS011;23848;49.798;10.228;2022-09-09T08:49:04;1.27;;;0.50;;
26756;SDS011;23848;49.798;10.228;2022-09-09T08:51:35;2.10;;;0.60;;
26756;SDS011;23848;49.798;10.228;2022-09-09T08:54:03;2.13;;;0.80;;
26756;SDS011;23848;49.798;10.228;2022-09-09T08:56:32;1.88;;;0.80;;
26756;SDS011;23848;49.798;10.228;2022-09-09T08:59:01;2.97;;;0.60;;
26756;SDS011;23848;49.798;10.228;2022-09-09T09:01:37;2.05;;;0.57;;
26756;SDS011;23848;49.798;10.228;2022-09-09T09:04:26;1.73;;;0.68;;
26756;SDS011;23848;49.798;10.228;2022-09-09T09:09:28;1.58;;;0.60;;
26756;SDS011;23848;49.798;10.228;2022-09-09T09:12:00;4.32;;;0.82;;
26756;SDS011;23848;49.798;10.228;2022-09-09T09:14:29;2.55;;;1.17;;
26756;SDS011;23848;49.798;10.228;2022-09-09T09:17:00;2.92;;;0.70;;
26756;SDS011;23848;49.798;10.228;2022-09-09T09:19:31;3.03;;;1.02;;
26756;SDS011;23848;49.798;10.228;2022-09-09T09:22:01;3.70;;;0.77;;
26756;SDS011;23848;49.798;10.228;2022-09-09T09:24:36;4.72;;;0.85;;
26756;SDS011;23848;49.798;10.228;2022-09-09T09:27:11;2.80;;;0.85;;
26756;SDS011;23848;49.798;10.228;2022-09-09T09:29:40;3.15;;;0.70;;
26756;SDS011;23848;49.798;10.228;2022-09-09T09:32:31;4.07;;;0.93;;
26756;SDS011;23848;49.798;10.228;2022-09-09T09:35:02;4.90;;;0.77;;
26756;SDS011;23848;49.798;10.228;2022-09-09T09:37:33;2.50;;;0.75;;
26756;SDS011;23848;49.798;10.228;2022-09-09T09:40:10;4.18;;;0.88;;
26756;SDS011;23848;49.798;10.228;2022-09-09T09:42:47;2.97;;;0.75;;
26756;SDS011;23848;49.798;10.228;2022-09-09T09:45:16;2.35;;;0.70;;
26756;SDS011;23848;49.798;10.228;2022-09-09T09:47:46;4.32;;;0.90;;
26756;SDS011;23848;49.798;10.228;2022-09-09T09:50:32;2.58;;;1.02;;
26756;SDS011;23848;49.798;10.228;2022-09-09T09:53:02;3.72;;;0.93;;
26756;SDS011;23848;49.798;10.228;2022-09-09T09:55:32;5.13;;;1.08;;
26756;SDS011;23848;49.798;10.228;2022-09-09T09:58:02;2.50;;;0.80;;
26756;SDS011;23848;49.798;10.228;2022-09-09T10:00:35;3.75;;;0.70;;
26756;SDS011;23848;49.798;10.228;2022-09-09T10:03:12;3.90;;;0.70;;
26756;SDS011;23848;49.798;10.228;2022-09-09T10:05:44;1.27;;;0.55;;
26756;SDS011;23848;49.798;10.228;2022-09-09T10:08:14;3.55;;;0.98;;
26756;SDS011;23848;49.798;10.228;2022-09-09T10:10:53;3.30;;;0.70;;
26756;SDS011;23848;49.798;10.228;2022-09-09T10:13:25;3.08;;;0.70;;
26756;SDS011;23848;49.798;10.228;2022-09-09T10:15:58;3.80;;;0.75;;
26756;SDS011;23848;49.798;10.228;2022-09-09T10:21:20;4.63;;;0.63;;
26756;SDS011;23848;49.798;10.228;2022-09-09T10:23:54;4.50;;;0.90;;
26756;SDS011;23848;49.798;10.228;2022-09-09T10:26:31;2.65;;;0.65;;
26756;SDS011;23848;49.798;10.228;2022-09-09T10:29:06;5.65;;;1.38;;
26756;SDS011;23848;49.798;10.228;2022-09-09T10:31:41;2.45;;;0.52;;
26756;SDS011;23848;49.798;10.228;2022-09-09T10:34:14;2.88;;;0.82;;
26756;SDS011;23848;49.798;10.228;2022-09-09T10:36:47;2.13;;;0.65;;
26756;SDS011;23848;49.798;10.228;2022-09-09T10:39:19;2.38;;;0.77;;
26756;SDS011;23848;49.798;10.228;2022-09-09T10:41:54;1.92;;;0.77;;
26756;SDS011;23848;49.798;10.228;2022-09-09T10:44:41;2.22;;;0.70;;
26756;SDS011;23848;49.798;10.228;2022-09-09T10:47:19;3.85;;;0.75;;
26756;SDS011;23848;49.798;10.228;2022-09-09T10:50:07;1.95;;;0.47;;
26756;SDS011;23848;49.798;10.228;2022-09-09T10:52:40;2.55;;;0.80;;
26756;SDS011;23848;49.798;10.228;2022-09-09T10:55:15;3.80;;;0.65;;
26756;SDS011;23848;49.798;10.228;2022-09-09T10:57:47;2.80;;;0.68;;
26756;SDS011;23848;49.798;10.228;2022-09-09T11:00:19;1.88;;;0.60;;
26756;SDS011;23848;49.798;10.228;2022-09-09T11:02:48;2.38;;;0.73;;
26756;SDS011;23848;49.798;10.228;2022-09-09T11:05:19;2.28;;;0.40;;
26756;SDS011;23848;49.798;10.228;2022-09-09T11:07:49;1.85;;;0.30;;
26756;SDS011;23848;49.798;10.228;2022-09-09T11:10:21;1.25;;;0.40;;
26756;SDS011;23848;49.798;10.228;2022-09-09T11:12:53;1.45;;;0.38;;
26756;SDS011;23848;49.798;10.228;2022-09-09T11:15:26;1.13;;;0.32;;
26756;SDS011;23848;49.798;10.228;2022-09-09T11:17:56;0.50;;;0.10;;
26756;SDS011;23848;49.798;10.228;2022-09-09T11:20:26;1.95;;;0.40;;
26756;SDS011;23848;49.798;10.228;2022-09-09T11:22:55;0.80;;;0.30;;
26756;SDS011;23848;49.798;10.228;2022-09-09T11:25:26;0.60;;;0.20;;
26756;SDS011;23848;49.798;10.228;2022-09-09T11:28:01;0.75;;;0.20;;
26756;SDS011;23848;49.798;10.228;2022-09-09T11:30:36;2.63;;;0.55;;
26756;SDS011;23848;49.798;10.228;2022-09-09T11:33:28;1.38;;;0.40;;
26756;SDS011;23848;49.798;10.228;2022-09-09T11:36:03;2.90;;;0.30;;
26756;SDS011;23848;49.798;10.228;2022-09-09T11:38:36;3.08;;;0.50;;
26756;SDS011;23848;49.798;10.228;2022-09-09T11:41:09;3.50;;;1.40;;
26756;SDS011;23848;49.798;10.228;2022-09-09T11:43:40;4.30;;;1.80;;
26756;SDS011;23848;49.798;10.228;2022-09-09T11:46:09;3.22;;;1.15;;
26756;SDS011;23848;49.798;10.228;2022-09-09T11:48:38;3.95;;;1.15;;
26756;SDS011;23848;49.798;10.228;2022-09-09T11:51:10;6.40;;;3.00;;
26756;SDS011;23848;49.798;10.228;2022-09-09T11:53:49;4.05;;;1.80;;
26756;SDS011;23848;49.798;10.228;2022-09-09T11:56:25;2.72;;;0.80;;
26756;SDS011;23848;49.798;10.228;2022-09-09T11:58:56;1.63;;;0.50;;
26756;SDS011;23848;49.798;10.228;2022-09-09T12:01:27;1.70;;;0.60;;
26756;SDS011;23848;49.798;10.228;2022-09-09T12:04:13;2.35;;;0.60;;
26756;SDS011;23848;49.798;10.228;2022-09-09T12:06:48;1.55;;;0.50;;
26756;SDS011;23848;49.798;10.228;2022-09-09T12:09:23;1.35;;;0.50;;
26756;SDS011;23848;49.798;10.228;2022-09-09T12:11:53;1.75;;;0.35;;
26756;SDS011;23848;49.798;10.228;2022-09-09T12:14:37;1.27;;;0.43;;
26756;SDS011;23848;49.798;10.228;2022-09-09T12:17:09;1.67;;;0.68;;
26756;SDS011;23848;49.798;10.228;2022-09-09T12:19:37;1.70;;;0.40;;
26756;SDS011;23848;49.798;10.228;2022-09-09T12:22:11;1.30;;;0.43;;
26756;SDS011;23848;49.798;10.228;2022-09-09T12:24:43;1.85;;;0.85;;
26756;SDS011;23848;49.798;10.228;2022-09-09T12:27:14;0.98;;;0.40;;
26756;SDS011;23848;49.798;10.228;2022-09-09T12:29:57;0.77;;;0.40;;
26756;SDS011;23848;49.798;10.228;2022-09-09T12:32:29;2.13;;;0.60;;
26756;SDS011;23848;49.798;10.228;2022-09-09T12:34:58;2.00;;;0.60;;
26756;SDS011;23848;49.798;10.228;2022-09-09T12:37:29;3.05;;;0.70;;
26756;SDS011;23848;49.798;10.228;2022-09-09T12:39:59;0.90;;;0.57;;
26756;SDS011;23848;49.798;10.228;2022-09-09T12:42:28;2.10;;;0.60;;
26756;SDS011;23848;49.798;10.228;2022-09-09T12:45:16;2.58;;;0.73;;
26756;SDS011;23848;49.798;10.228;2022-09-09T12:47:46;3.50;;;0.90;;
26756;SDS011;23848;49.798;10.228;2022-09-09T12:50:15;1.33;;;0.60;;
26756;SDS011;23848;49.798;10.228;2022-09-09T12:52:45;5.25;;;0.80;;
26756;SDS011;23848;49.798;10.228;2022-09-09T12:55:16;7.50;;;1.20;;
26756;SDS011;23848;49.798;10.228;2022-09-09T12:57:47;3.65;;;0.90;;
26756;SDS011;23848;49.798;10.228;2022-09-09T13:00:19;2.90;;;0.52;;
26756;SDS011;23848;49.798;10.228;2022-09-09T13:02:50;3.65;;;0.50;;
26756;SDS011;23848;49.798;10.228;2022-09-09T13:05:20;1.83;;;0.70;;
26756;SDS011;23848;49.798;10.228;2022-09-09T13:07:49;4.63;;;1.15;;
26756;SDS011;23848;49.798;10.228;2022-09-09T13:10:20;1.88;;;0.57;;
26756;SDS011;23848;49.798;10.228;2022-09-09T13:13:11;2.97;;;0.80;;
26756;SDS011;23848;49.798;10.228;2022-09-09T13:15:47;3.55;;;0.70;;
26756;SDS011;23848;49.798;10.228;2022-09-09T13:18:16;3.00;;;0.77;;
26756;SDS011;23848;49.798;10.228;2022-09-09T13:20:46;1.33;;;0.57;;
26756;SDS011;23848;49.798;10.228;2022-09-09T13:23:15;5.65;;;0.65;;
26756;SDS011;23848;49.798;10.228;2022-09-09T13:25:52;2.78;;;0.57;;
26756;SDS011;23848;49.798;10.228;2022-09-09T13:28:21;2.55;;;0.93;;
26756;SDS011;23848;49.798;10.228;2022-09-09T13:30:58;1.38;;;0.40;;
26756;SDS011;23848;49.798;10.228;2022-09-09T13:33:30;1.67;;;0.55;;
26756;SDS011;23848;49.798;10.228;2022-09-09T13:36:00;2.10;;;0.70;;
26756;SDS011;23848;49.798;10.228;2022-09-09T13:38:31;2.05;;;0.60;;
26756;SDS011;23848;49.798;10.228;2022-09-09T13:41:00;2.22;;;0.70;;
26756;SDS011;23848;49.798;10.228;2022-09-09T13:43:31;2.50;;;0.50;;
26756;SDS011;23848;49.798;10.228;2022-09-09T13:46:02;3.50;;;0.85;;
26756;SDS011;23848;49.798;10.228;2022-09-09T13:48:30;2.47;;;0.85;;
26756;SDS011;23848;49.798;10.228;2022-09-09T13:51:00;3.20;;;0.60;;
26756;SDS011;23848;49.798;10.228;2022-09-09T13:53:29;2.03;;;0.73;;
26756;SDS011;23848;49.798;10.228;2022-09-09T13:55:57;4.13;;;1.30;;
26756;SDS011;23848;49.798;10.228;2022-09-09T13:58:26;1.88;;;0.90;;
26756;SDS011;23848;49.798;10.228;2022-09-09T14:00:55;2.20;;;0.73;;
26756;SDS011;23848;49.798;10.228;2022-09-09T14:03:25;5.10;;;0.98;;
26756;SDS011;23848;49.798;10.228;2022-09-09T14:05:53;1.65;;;0.60;;
26756;SDS011;23848;49.798;10.228;2022-09-09T14:08:23;4.32;;;0.77;;
26756;SDS011;23848;49.798;10.228;2022-09-09T14:10:51;2.92;;;0.60;;
26756;SDS011;23848;49.798;10.228;2022-09-09T14:13:25;2.22;;;0.80;;
26756;SDS011;23848;49.798;10.228;2022-09-09T14:15:54;3.30;;;0.50;;
26756;SDS011;23848;49.798;10.228;2022-09-09T14:18:22;1.48;;;0.50;;
26756;SDS011;23848;49.798;10.228;2022-09-09T14:20:53;1.75;;;0.55;;
26756;SDS011;23848;49.798;10.228;2022-09-09T14:23:21;2.95;;;0.43;;
26756;SDS011;23848;49.798;10.228;2022-09-09T14:25:50;2.40;;;0.75;;
26756;SDS011;23848;49.798;10.228;2022-09-09T14:28:19;1.75;;;0.73;;
26756;SDS011;23848;49.798;10.228;2022-09-09T14:31:07;3.65;;;0.57;;
26756;SDS011;23848;49.798;10.228;2022-09-09T14:33:36;4.43;;;1.02;;
26756;SDS011;23848;49.798;10.228;2022-09-09T14:36:06;2.95;;;0.65;;
26756;SDS011;23848;49.798;10.228;2022-09-09T14:38:35;1.70;;;0.60;;
26756;SDS011;23848;49.798;10.228;2022-09-09T14:41:05;1.13;;;0.40;;
26756;SDS011;23848;49.798;10.228;2022-09-09T14:43:34;2.17;;;0.60;;
26756;SDS011;23848;49.798;10.228;2022-09-09T14:46:05;1.13;;;0.50;;
26756;SDS011;23848;49.798;10.228;2022-09-09T14:48:33;1.08;;;0.47;;
26756;SDS011;23848;49.798;10.228;2022-09-09T14:51:07;1.23;;;0.63;;
26756;SDS011;23848;49.798;10.228;2022-09-09T14:53:35;1.40;;;0.50;;
26756;SDS011;23848;49.798;10.228;2022-09-09T14:56:05;1.83;;;0.40;;
26756;SDS011;23848;49.798;10.228;2022-09-09T14:58:33;1.67;;;0.40;;
26756;SDS011;23848;49.798;10.228;2022-09-09T15:01:03;1.50;;;0.50;;
26756;SDS011;23848;49.798;10.228;2022-09-09T15:03:31;3.33;;;0.60;;
26756;SDS011;23848;49.798;10.228;2022-09-09T15:06:04;1.10;;;0.38;;